sensor_id;sensor_type;location;lat;lon;timestamp;P1;durP1;ratioP1;P2;durP2;ratioP2
5555;SDS011;2801;50.972;7.856;2023-02-26T00:01:27;5.97;;;3.10;;
5555;SDS011;2801;50.972;7.856;2023-02-26T00:04:02;8.70;;;3.67;;
5555;SDS011;2801;50.972;7.856;2023-02-26T00:06:31;5.73;;;2.83;;
5555;SDS011;2801;50.972;7.856;2023-02-26T00:09:01;5.37;;;2.70;;
5555;SDS011;2801;50.972;7.856;2023-02-26T00:11:30;5.17;;;3.13;;
5555;SDS011;2801;50.972;7.856;2023-02-26T00:13:58;3.23;;;2.30;;
5555;SDS011;2801;50.972;7.856;2023-02-26T00:19:00;5.07;;;2.50;;
5555;SDS011;2801;50.972;7.856;2023-02-26T00:21:32;6.07;;;2.70;;
5555;SDS011;2801;50.972;7.856;2023-02-26T00:24:01;5.40;;;3.03;;
5555;SDS011;2801;50.972;7.856;2023-02-26T00:26:28;4.70;;;2.87;;
5555;SDS011;2801;50.972;7.856;2023-02-26T00:28:57;6.17;;;2.70;;
5555;SDS011;2801;50.972;7.856;2023-02-26T00:31:24;3.33;;;2.37;;
5555;SDS011;2801;50.972;7.856;2023-02-26T00:33:53;2.97;;;2.27;;
5555;SDS011;2801;50.972;7.856;2023-02-26T00:36:23;4.03;;;2.30;;
5555;SDS011;2801;50.972;7.856;2023-02-26T00:39:13;3.40;;;2.17;;
5555;SDS011;2801;50.972;7.856;2023-02-26T00:41:44;5.83;;;2.30;;
5555;SDS011;2801;50.972;7.856;2023-02-26T00:44:11;4.17;;;2.27;;
5555;SDS011;2801;50.972;7.856;2023-02-26T00:52:28;4.10;;;1.50;;
5555;SDS011;2801;50.972;7.856;2023-02-26T00:55:12;4.47;;;1.93;;
5555;SDS011;2801;50.972;7.856;2023-02-26T00:57:39;1.80;;;1.70;;
5555;SDS011;2801;50.972;7.856;2023-02-26T01:00:06;4.03;;;1.53;;
5555;SDS011;2801;50.972;7.856;2023-02-26T01:02:34;2.93;;;1.73;;
5555;SDS011;2801;50.972;7.856;2023-02-26T01:05:04;4.37;;;1.80;;
5555;SDS011;2801;50.972;7.856;2023-02-26T01:07:37;3.67;;;1.70;;
5555;SDS011;2801;50.972;7.856;2023-02-26T01:10:11;4.73;;;1.70;;
5555;SDS011;2801;50.972;7.856;2023-02-26T01:12:39;3.53;;;1.63;;
5555;SDS011;2801;50.972;7.856;2023-02-26T01:15:07;2.57;;;1.70;;
5555;SDS011;2801;50.972;7.856;2023-02-26T01:17:56;4.13;;;1.73;;
5555;SDS011;2801;50.972;7.856;2023-02-26T01:20:53;5.87;;;2.20;;
5555;SDS011;2801;50.972;7.856;2023-02-26T01:23:30;2.40;;;1.87;;
5555;SDS011;2801;50.972;7.856;2023-02-26T01:26:05;4.67;;;2.23;;
5555;SDS011;2801;50.972;7.856;2023-02-26T01:28:42;3.33;;;2.10;;
5555;SDS011;2801;50.972;7.856;2023-02-26T01:31:13;2.77;;;2.07;;
5555;SDS011;2801;50.972;7.856;2023-02-26T01:34:02;3.27;;;1.93;;
5555;SDS011;2801;50.972;7.856;2023-02-26T01:36:46;2.47;;;2.00;;
5555;SDS011;2801;50.972;7.856;2023-02-26T01:39:48;4.87;;;2.47;;
5555;SDS011;2801;50.972;7.856;2023-02-26T01:42:56;4.00;;;2.57;;
5555;SDS011;2801;50.972;7.856;2023-02-26T01:45:37;3.13;;;2.40;;
5555;SDS011;2801;50.972;7.856;2023-02-26T01:48:17;3.63;;;2.37;;
5555;SDS011;2801;50.972;7.856;2023-02-26T01:51:00;6.97;;;2.80;;
5555;SDS011;2801;50.972;7.856;2023-02-26T01:53:27;7.00;;;2.50;;
5555;SDS011;2801;50.972;7.856;2023-02-26T01:56:02;7.17;;;3.10;;
5555;SDS011;2801;50.972;7.856;2023-02-26T01:58:37;3.80;;;2.70;;
5555;SDS011;2801;50.972;7.856;2023-02-26T02:01:05;4.90;;;2.57;;
5555;SDS011;2801;50.972;7.856;2023-02-26T02:03:34;3.37;;;2.27;;
5555;SDS011;2801;50.972;7.856;2023-02-26T02:06:07;3.53;;;2.43;;
5555;SDS011;2801;50.972;7.856;2023-02-26T02:08:41;6.47;;;2.37;;
5555;SDS011;2801;50.972;7.856;2023-02-26T02:11:09;3.67;;;2.30;;
5555;SDS011;2801;50.972;7.856;2023-02-26T02:16:54;5.80;;;2.60;;
5555;SDS011;2801;50.972;7.856;2023-02-26T02:23:00;7.03;;;3.07;;
5555;SDS011;2801;50.972;7.856;2023-02-26T02:38:05;5.20;;;2.70;;
5555;SDS011;2801;50.972;7.856;2023-02-26T02:40:43;4.53;;;2.67;;
5555;SDS011;2801;50.972;7.856;2023-02-26T02:43:21;7.23;;;2.67;;
5555;SDS011;2801;50.972;7.856;2023-02-26T02:46:02;6.03;;;3.27;;
5555;SDS011;2801;50.972;7.856;2023-02-26T02:48:38;6.50;;;3.00;;
5555;SDS011;2801;50.972;7.856;2023-02-26T02:51:22;7.77;;;3.13;;
5555;SDS011;2801;50.972;7.856;2023-02-26T02:54:05;7.70;;;3.10;;
5555;SDS011;2801;50.972;7.856;2023-02-26T02:57:04;7.20;;;3.40;;
5555;SDS011;2801;50.972;7.856;2023-02-26T02:59:53;7.10;;;3.03;;
5555;SDS011;2801;50.972;7.856;2023-02-26T03:02:47;6.87;;;3.40;;
5555;SDS011;2801;50.972;7.856;2023-02-26T03:05:23;5.87;;;3.40;;
5555;SDS011;2801;50.972;7.856;2023-02-26T03:07:56;5.10;;;2.80;;
5555;SDS011;2801;50.972;7.856;2023-02-26T03:10:29;7.07;;;2.83;;
5555;SDS011;2801;50.972;7.856;2023-02-26T03:12:56;5.93;;;2.50;;
5555;SDS011;2801;50.972;7.856;2023-02-26T03:15:32;4.47;;;3.20;;
5555;SDS011;2801;50.972;7.856;2023-02-26T03:25:26;6.10;;;3.00;;
5555;SDS011;2801;50.972;7.856;2023-02-26T03:28:00;8.47;;;3.33;;
5555;SDS011;2801;50.972;7.856;2023-02-26T03:30:42;5.53;;;2.93;;
5555;SDS011;2801;50.972;7.856;2023-02-26T03:33:34;6.40;;;2.83;;
5555;SDS011;2801;50.972;7.856;2023-02-26T03:36:41;4.23;;;2.67;;
5555;SDS011;2801;50.972;7.856;2023-02-26T03:39:14;4.77;;;2.53;;
5555;SDS011;2801;50.972;7.856;2023-02-26T03:41:55;5.27;;;2.80;;
5555;SDS011;2801;50.972;7.856;2023-02-26T03:45:32;6.27;;;2.77;;
5555;SDS011;2801;50.972;7.856;2023-02-26T03:47:50;7.50;;;3.37;;
5555;SDS011;2801;50.972;7.856;2023-02-26T03:50:21;7.37;;;3.20;;
5555;SDS011;2801;50.972;7.856;2023-02-26T03:52:57;5.43;;;3.20;;
5555;SDS011;2801;50.972;7.856;2023-02-26T03:55:35;4.67;;;2.57;;
5555;SDS011;2801;50.972;7.856;2023-02-26T03:58:11;5.00;;;2.93;;
5555;SDS011;2801;50.972;7.856;2023-02-26T04:00:38;9.10;;;2.90;;
5555;SDS011;2801;50.972;7.856;2023-02-26T04:03:16;5.80;;;2.80;;
5555;SDS011;2801;50.972;7.856;2023-02-26T04:05:53;5.83;;;3.07;;
5555;SDS011;2801;50.972;7.856;2023-02-26T04:08:21;6.03;;;2.97;;
5555;SDS011;2801;50.972;7.856;2023-02-26T04:10:53;7.30;;;3.43;;
5555;SDS011;2801;50.972;7.856;2023-02-26T04:13:25;5.93;;;3.03;;
5555;SDS011;2801;50.972;7.856;2023-02-26T04:15:53;5.53;;;3.00;;
5555;SDS011;2801;50.972;7.856;2023-02-26T04:18:20;6.30;;;3.30;;
5555;SDS011;2801;50.972;7.856;2023-02-26T04:20:47;4.07;;;1.67;;
5555;SDS011;2801;50.972;7.856;2023-02-26T04:23:14;6.20;;;3.90;;
5555;SDS011;2801;50.972;7.856;2023-02-26T04:25:41;6.43;;;3.23;;
5555;SDS011;2801;50.972;7.856;2023-02-26T04:28:08;6.87;;;3.30;;
5555;SDS011;2801;50.972;7.856;2023-02-26T04:30:35;5.13;;;3.47;;
5555;SDS011;2801;50.972;7.856;2023-02-26T04:33:02;7.27;;;3.47;;
5555;SDS011;2801;50.972;7.856;2023-02-26T04:35:29;4.60;;;3.07;;
5555;SDS011;2801;50.972;7.856;2023-02-26T04:37:55;6.97;;;3.27;;
5555;SDS011;2801;50.972;7.856;2023-02-26T04:40:22;5.67;;;3.30;;
5555;SDS011;2801;50.972;7.856;2023-02-26T04:42:49;4.73;;;3.03;;
5555;SDS011;2801;50.972;7.856;2023-02-26T04:45:16;8.93;;;3.50;;
5555;SDS011;2801;50.972;7.856;2023-02-26T04:47:43;4.13;;;2.83;;
5555;SDS011;2801;50.972;7.856;2023-02-26T04:50:10;4.67;;;2.63;;
5555;SDS011;2801;50.972;7.856;2023-02-26T04:52:37;6.93;;;3.10;;
5555;SDS011;2801;50.972;7.856;2023-02-26T04:55:04;6.13;;;2.60;;
5555;SDS011;2801;50.972;7.856;2023-02-26T04:57:32;8.60;;;3.47;;
5555;SDS011;2801;50.972;7.856;2023-02-26T04:59:59;5.90;;;3.57;;
5555;SDS011;2801;50.972;7.856;2023-02-26T05:02:26;4.77;;;2.97;;
5555;SDS011;2801;50.972;7.856;2023-02-26T05:04:53;6.70;;;3.43;;
5555;SDS011;2801;50.972;7.856;2023-02-26T05:07:20;5.63;;;3.47;;
5555;SDS011;2801;50.972;7.856;2023-02-26T05:09:47;5.47;;;3.30;;
5555;SDS011;2801;50.972;7.856;2023-02-26T05:12:13;7.57;;;3.30;;
5555;SDS011;2801;50.972;7.856;2023-02-26T05:14:41;5.33;;;3.27;;
5555;SDS011;2801;50.972;7.856;2023-02-26T05:17:08;6.03;;;3.30;;
5555;SDS011;2801;50.972;7.856;2023-02-26T05:19:35;8.17;;;3.60;;
5555;SDS011;2801;50.972;7.856;2023-02-26T05:22:02;5.80;;;3.50;;
5555;SDS011;2801;50.972;7.856;2023-02-26T05:24:29;7.03;;;3.37;;
5555;SDS011;2801;50.972;7.856;2023-02-26T05:26:55;6.20;;;3.17;;
5555;SDS011;2801;50.972;7.856;2023-02-26T05:29:22;5.27;;;2.50;;
5555;SDS011;2801;50.972;7.856;2023-02-26T05:31:49;6.53;;;2.93;;
5555;SDS011;2801;50.972;7.856;2023-02-26T05:34:16;4.40;;;2.20;;
5555;SDS011;2801;50.972;7.856;2023-02-26T05:36:43;6.17;;;3.00;;
5555;SDS011;2801;50.972;7.856;2023-02-26T05:39:10;5.50;;;3.23;;
5555;SDS011;2801;50.972;7.856;2023-02-26T05:41:37;7.00;;;3.03;;
5555;SDS011;2801;50.972;7.856;2023-02-26T05:44:04;4.70;;;2.90;;
5555;SDS011;2801;50.972;7.856;2023-02-26T05:46:32;6.93;;;3.20;;
5555;SDS011;2801;50.972;7.856;2023-02-26T05:48:59;6.80;;;3.00;;
5555;SDS011;2801;50.972;7.856;2023-02-26T05:51:26;2.80;;;1.73;;
5555;SDS011;2801;50.972;7.856;2023-02-26T05:53:54;7.03;;;3.20;;
5555;SDS011;2801;50.972;7.856;2023-02-26T05:56:21;4.67;;;2.93;;
5555;SDS011;2801;50.972;7.856;2023-02-26T05:58:48;5.13;;;3.10;;
5555;SDS011;2801;50.972;7.856;2023-02-26T06:01:15;5.40;;;2.93;;
5555;SDS011;2801;50.972;7.856;2023-02-26T06:03:42;5.43;;;3.03;;
5555;SDS011;2801;50.972;7.856;2023-02-26T06:06:10;6.37;;;2.70;;
5555;SDS011;2801;50.972;7.856;2023-02-26T06:08:37;6.27;;;2.83;;
5555;SDS011;2801;50.972;7.856;2023-02-26T06:11:05;5.87;;;3.10;;
5555;SDS011;2801;50.972;7.856;2023-02-26T06:13:31;4.53;;;3.10;;
5555;SDS011;2801;50.972;7.856;2023-02-26T06:15:58;1.67;;;1.30;;
5555;SDS011;2801;50.972;7.856;2023-02-26T06:18:25;5.27;;;3.40;;
5555;SDS011;2801;50.972;7.856;2023-02-26T06:20:52;5.03;;;3.03;;
5555;SDS011;2801;50.972;7.856;2023-02-26T06:23:19;4.93;;;2.63;;
5555;SDS011;2801;50.972;7.856;2023-02-26T06:25:46;4.30;;;2.90;;
5555;SDS011;2801;50.972;7.856;2023-02-26T06:28:12;5.30;;;3.10;;
5555;SDS011;2801;50.972;7.856;2023-02-26T06:30:39;9.83;;;3.23;;
5555;SDS011;2801;50.972;7.856;2023-02-26T06:33:06;7.70;;;3.93;;
5555;SDS011;2801;50.972;7.856;2023-02-26T06:35:33;5.70;;;3.07;;
5555;SDS011;2801;50.972;7.856;2023-02-26T06:38:00;4.03;;;2.70;;
5555;SDS011;2801;50.972;7.856;2023-02-26T06:40:27;5.57;;;3.00;;
5555;SDS011;2801;50.972;7.856;2023-02-26T06:42:55;6.43;;;3.30;;
5555;SDS011;2801;50.972;7.856;2023-02-26T06:45:22;7.13;;;3.23;;
5555;SDS011;2801;50.972;7.856;2023-02-26T06:47:50;5.90;;;3.13;;
5555;SDS011;2801;50.972;7.856;2023-02-26T06:50:17;6.67;;;3.60;;
5555;SDS011;2801;50.972;7.856;2023-02-26T06:52:44;6.03;;;2.93;;
5555;SDS011;2801;50.972;7.856;2023-02-26T06:55:11;7.13;;;3.30;;
5555;SDS011;2801;50.972;7.856;2023-02-26T06:57:37;4.37;;;2.87;;
5555;SDS011;2801;50.972;7.856;2023-02-26T07:00:05;5.87;;;2.73;;
5555;SDS011;2801;50.972;7.856;2023-02-26T07:02:33;6.63;;;3.20;;
5555;SDS011;2801;50.972;7.856;2023-02-26T07:05:00;7.03;;;3.27;;
5555;SDS011;2801;50.972;7.856;2023-02-26T07:07:27;5.10;;;3.30;;
5555;SDS011;2801;50.972;7.856;2023-02-26T07:09:54;4.03;;;3.00;;
5555;SDS011;2801;50.972;7.856;2023-02-26T07:12:21;4.90;;;3.00;;
5555;SDS011;2801;50.972;7.856;2023-02-26T07:14:47;3.50;;;2.20;;
5555;SDS011;2801;50.972;7.856;2023-02-26T07:17:14;4.67;;;2.90;;
5555;SDS011;2801;50.972;7.856;2023-02-26T07:19:46;5.33;;;2.70;;
5555;SDS011;2801;50.972;7.856;2023-02-26T07:22:14;6.60;;;3.33;;
5555;SDS011;2801;50.972;7.856;2023-02-26T07:24:47;4.83;;;2.83;;
5555;SDS011;2801;50.972;7.856;2023-02-26T07:27:14;7.13;;;3.30;;
5555;SDS011;2801;50.972;7.856;2023-02-26T07:29:42;4.47;;;3.17;;
5555;SDS011;2801;50.972;7.856;2023-02-26T07:32:09;6.40;;;3.50;;
5555;SDS011;2801;50.972;7.856;2023-02-26T07:34:36;5.00;;;3.30;;
5555;SDS011;2801;50.972;7.856;2023-02-26T07:37:02;6.50;;;3.30;;
5555;SDS011;2801;50.972;7.856;2023-02-26T07:39:29;3.17;;;1.50;;
5555;SDS011;2801;50.972;7.856;2023-02-26T07:41:56;8.80;;;3.30;;
5555;SDS011;2801;50.972;7.856;2023-02-26T07:44:23;6.10;;;3.53;;
5555;SDS011;2801;50.972;7.856;2023-02-26T07:46:49;4.87;;;3.03;;
5555;SDS011;2801;50.972;7.856;2023-02-26T07:49:16;4.43;;;3.27;;
5555;SDS011;2801;50.972;7.856;2023-02-26T07:51:43;3.93;;;2.73;;
5555;SDS011;2801;50.972;7.856;2023-02-26T07:54:11;1.67;;;1.17;;
5555;SDS011;2801;50.972;7.856;2023-02-26T07:56:39;6.13;;;3.00;;
5555;SDS011;2801;50.972;7.856;2023-02-26T07:59:08;4.97;;;3.33;;
5555;SDS011;2801;50.972;7.856;2023-02-26T08:01:35;3.83;;;1.97;;
5555;SDS011;2801;50.972;7.856;2023-02-26T08:04:06;3.80;;;2.30;;
5555;SDS011;2801;50.972;7.856;2023-02-26T08:06:34;4.17;;;2.53;;
5555;SDS011;2801;50.972;7.856;2023-02-26T08:09:01;5.77;;;2.97;;
5555;SDS011;2801;50.972;7.856;2023-02-26T08:11:30;6.17;;;3.30;;
5555;SDS011;2801;50.972;7.856;2023-02-26T08:14:05;4.67;;;3.10;;
5555;SDS011;2801;50.972;7.856;2023-02-26T08:16:33;4.63;;;2.80;;
5555;SDS011;2801;50.972;7.856;2023-02-26T08:18:59;3.30;;;2.50;;
5555;SDS011;2801;50.972;7.856;2023-02-26T08:21:26;4.17;;;2.80;;
5555;SDS011;2801;50.972;7.856;2023-02-26T08:23:53;2.20;;;1.73;;
5555;SDS011;2801;50.972;7.856;2023-02-26T08:26:20;5.40;;;2.40;;
5555;SDS011;2801;50.972;7.856;2023-02-26T08:28:48;2.87;;;2.00;;
5555;SDS011;2801;50.972;7.856;2023-02-26T08:31:15;5.03;;;2.70;;
5555;SDS011;2801;50.972;7.856;2023-02-26T08:33:42;6.13;;;2.23;;
5555;SDS011;2801;50.972;7.856;2023-02-26T08:36:09;4.23;;;2.73;;
5555;SDS011;2801;50.972;7.856;2023-02-26T08:38:37;2.50;;;1.60;;
5555;SDS011;2801;50.972;7.856;2023-02-26T08:41:04;3.93;;;2.37;;
5555;SDS011;2801;50.972;7.856;2023-02-26T08:43:31;2.90;;;1.67;;
5555;SDS011;2801;50.972;7.856;2023-02-26T08:45:58;3.33;;;1.70;;
5555;SDS011;2801;50.972;7.856;2023-02-26T08:48:25;3.27;;;2.00;;
5555;SDS011;2801;50.972;7.856;2023-02-26T08:50:52;4.87;;;2.63;;
5555;SDS011;2801;50.972;7.856;2023-02-26T08:53:19;4.10;;;2.73;;
5555;SDS011;2801;50.972;7.856;2023-02-26T08:55:47;7.60;;;2.70;;
5555;SDS011;2801;50.972;7.856;2023-02-26T08:58:18;3.30;;;2.00;;
5555;SDS011;2801;50.972;7.856;2023-02-26T09:00:46;3.20;;;1.53;;
5555;SDS011;2801;50.972;7.856;2023-02-26T09:03:13;5.43;;;2.10;;
5555;SDS011;2801;50.972;7.856;2023-02-26T09:05:40;3.47;;;2.27;;
5555;SDS011;2801;50.972;7.856;2023-02-26T09:08:08;3.37;;;2.07;;
5555;SDS011;2801;50.972;7.856;2023-02-26T09:10:36;2.80;;;2.10;;
5555;SDS011;2801;50.972;7.856;2023-02-26T09:13:06;2.07;;;1.57;;
5555;SDS011;2801;50.972;7.856;2023-02-26T09:15:33;2.77;;;1.70;;
5555;SDS011;2801;50.972;7.856;2023-02-26T09:18:00;5.37;;;2.40;;
5555;SDS011;2801;50.972;7.856;2023-02-26T09:20:27;5.30;;;2.10;;
5555;SDS011;2801;50.972;7.856;2023-02-26T09:22:54;2.53;;;2.03;;
5555;SDS011;2801;50.972;7.856;2023-02-26T09:25:20;6.63;;;2.20;;
5555;SDS011;2801;50.972;7.856;2023-02-26T09:27:49;8.30;;;1.90;;
5555;SDS011;2801;50.972;7.856;2023-02-26T09:30:16;3.50;;;2.23;;
5555;SDS011;2801;50.972;7.856;2023-02-26T09:32:43;7.20;;;4.30;;
5555;SDS011;2801;50.972;7.856;2023-02-26T09:35:10;5.57;;;2.93;;
5555;SDS011;2801;50.972;7.856;2023-02-26T09:37:37;4.43;;;2.40;;
5555;SDS011;2801;50.972;7.856;2023-02-26T09:40:05;2.27;;;1.27;;
5555;SDS011;2801;50.972;7.856;2023-02-26T09:45:34;4.03;;;2.17;;
5555;SDS011;2801;50.972;7.856;2023-02-26T09:48:09;5.53;;;2.00;;
5555;SDS011;2801;50.972;7.856;2023-02-26T09:50:43;4.07;;;1.90;;
5555;SDS011;2801;50.972;7.856;2023-02-26T09:53:17;4.17;;;2.00;;
5555;SDS011;2801;50.972;7.856;2023-02-26T09:56:07;2.60;;;1.57;;
5555;SDS011;2801;50.972;7.856;2023-02-26T09:58:49;3.00;;;1.80;;
5555;SDS011;2801;50.972;7.856;2023-02-26T10:13:18;4.20;;;1.93;;
5555;SDS011;2801;50.972;7.856;2023-02-26T10:16:25;1.70;;;1.13;;
5555;SDS011;2801;50.972;7.856;2023-02-26T10:19:05;8.83;;;4.67;;
5555;SDS011;2801;50.972;7.856;2023-02-26T10:24:21;1.43;;;1.13;;
5555;SDS011;2801;50.972;7.856;2023-02-26T10:27:08;2.70;;;1.10;;
5555;SDS011;2801;50.972;7.856;2023-02-26T10:35:16;3.40;;;0.87;;
5555;SDS011;2801;50.972;7.856;2023-02-26T10:40:36;2.67;;;1.50;;
5555;SDS011;2801;50.972;7.856;2023-02-26T10:52:16;5.23;;;2.03;;
5555;SDS011;2801;50.972;7.856;2023-02-26T10:55:24;2.10;;;1.30;;
5555;SDS011;2801;50.972;7.856;2023-02-26T11:00:40;3.37;;;1.67;;
5555;SDS011;2801;50.972;7.856;2023-02-26T11:03:45;1.60;;;0.80;;
5555;SDS011;2801;50.972;7.856;2023-02-26T11:06:07;1.70;;;0.90;;
5555;SDS011;2801;50.972;7.856;2023-02-26T11:08:42;3.73;;;1.30;;
5555;SDS011;2801;50.972;7.856;2023-02-26T11:11:33;0.60;;;0.60;;
5555;SDS011;2801;50.972;7.856;2023-02-26T11:14:12;4.10;;;1.60;;
5555;SDS011;2801;50.972;7.856;2023-02-26T11:16:45;1.43;;;0.87;;
5555;SDS011;2801;50.972;7.856;2023-02-26T11:19:19;1.27;;;0.70;;
5555;SDS011;2801;50.972;7.856;2023-02-26T11:21:59;3.37;;;1.10;;
5555;SDS011;2801;50.972;7.856;2023-02-26T11:24:36;0.67;;;0.67;;
5555;SDS011;2801;50.972;7.856;2023-02-26T11:27:16;1.40;;;0.80;;
5555;SDS011;2801;50.972;7.856;2023-02-26T11:29:48;1.20;;;0.80;;
5555;SDS011;2801;50.972;7.856;2023-02-26T11:32:34;1.47;;;0.73;;
5555;SDS011;2801;50.972;7.856;2023-02-26T11:35:05;1.13;;;0.70;;
5555;SDS011;2801;50.972;7.856;2023-02-26T11:37:35;0.53;;;0.53;;
5555;SDS011;2801;50.972;7.856;2023-02-26T11:43:05;2.10;;;1.00;;
5555;SDS011;2801;50.972;7.856;2023-02-26T11:45:38;0.60;;;0.60;;
5555;SDS011;2801;50.972;7.856;2023-02-26T11:48:13;2.93;;;1.20;;
5555;SDS011;2801;50.972;7.856;2023-02-26T11:50:50;2.63;;;1.10;;
5555;SDS011;2801;50.972;7.856;2023-02-26T11:53:24;2.03;;;1.13;;
5555;SDS011;2801;50.972;7.856;2023-02-26T11:55:59;2.40;;;1.27;;
5555;SDS011;2801;50.972;7.856;2023-02-26T11:58:37;3.53;;;0.80;;
5555;SDS011;2801;50.972;7.856;2023-02-26T12:01:13;2.83;;;1.00;;
5555;SDS011;2801;50.972;7.856;2023-02-26T12:03:45;1.40;;;0.90;;
5555;SDS011;2801;50.972;7.856;2023-02-26T12:06:20;3.17;;;1.37;;
5555;SDS011;2801;50.972;7.856;2023-02-26T12:08:50;2.43;;;1.20;;
5555;SDS011;2801;50.972;7.856;2023-02-26T12:26:28;3.57;;;1.10;;
5555;SDS011;2801;50.972;7.856;2023-02-26T12:29:09;1.90;;;0.87;;
5555;SDS011;2801;50.972;7.856;2023-02-26T12:32:09;2.30;;;1.00;;
5555;SDS011;2801;50.972;7.856;2023-02-26T12:38:38;2.30;;;0.90;;
5555;SDS011;2801;50.972;7.856;2023-02-26T12:41:27;2.90;;;1.07;;
5555;SDS011;2801;50.972;7.856;2023-02-26T12:44:16;2.90;;;1.07;;
5555;SDS011;2801;50.972;7.856;2023-02-26T12:52:54;1.77;;;0.93;;
5555;SDS011;2801;50.972;7.856;2023-02-26T12:55:56;1.93;;;1.10;;
5555;SDS011;2801;50.972;7.856;2023-02-26T12:59:21;1.70;;;0.80;;
5555;SDS011;2801;50.972;7.856;2023-02-26T13:14:17;1.80;;;0.97;;
5555;SDS011;2801;50.972;7.856;2023-02-26T13:17:17;0.77;;;0.77;;
5555;SDS011;2801;50.972;7.856;2023-02-26T13:20:15;1.07;;;0.70;;
5555;SDS011;2801;50.972;7.856;2023-02-26T13:22:49;0.93;;;0.70;;
5555;SDS011;2801;50.972;7.856;2023-02-26T13:25:36;0.97;;;0.70;;
5555;SDS011;2801;50.972;7.856;2023-02-26T13:29:02;1.30;;;0.80;;
5555;SDS011;2801;50.972;7.856;2023-02-26T13:31:21;1.03;;;0.93;;
5555;SDS011;2801;50.972;7.856;2023-02-26T13:34:17;0.67;;;0.67;;
5555;SDS011;2801;50.972;7.856;2023-02-26T13:36:50;0.30;;;0.30;;
5555;SDS011;2801;50.972;7.856;2023-02-26T13:39:31;2.73;;;0.97;;
5555;SDS011;2801;50.972;7.856;2023-02-26T13:42:50;2.57;;;0.70;;
5555;SDS011;2801;50.972;7.856;2023-02-26T13:49:05;1.60;;;0.70;;
5555;SDS011;2801;50.972;7.856;2023-02-26T13:51:47;2.73;;;0.97;;
5555;SDS011;2801;50.972;7.856;2023-02-26T13:57:05;3.43;;;1.40;;
5555;SDS011;2801;50.972;7.856;2023-02-26T13:59:52;1.43;;;1.10;;
5555;SDS011;2801;50.972;7.856;2023-02-26T14:05:52;2.90;;;1.23;;
5555;SDS011;2801;50.972;7.856;2023-02-26T14:11:05;2.57;;;1.10;;
5555;SDS011;2801;50.972;7.856;2023-02-26T14:16:54;4.43;;;0.83;;
5555;SDS011;2801;50.972;7.856;2023-02-26T14:24:55;0.93;;;0.70;;
5555;SDS011;2801;50.972;7.856;2023-02-26T14:32:45;1.60;;;1.00;;
5555;SDS011;2801;50.972;7.856;2023-02-26T14:35:24;1.77;;;1.20;;
5555;SDS011;2801;50.972;7.856;2023-02-26T14:38:00;2.50;;;1.20;;
5555;SDS011;2801;50.972;7.856;2023-02-26T14:40:46;2.07;;;0.80;;
5555;SDS011;2801;50.972;7.856;2023-02-26T14:43:21;1.27;;;0.83;;
5555;SDS011;2801;50.972;7.856;2023-02-26T14:46:07;2.13;;;1.00;;
5555;SDS011;2801;50.972;7.856;2023-02-26T14:48:36;2.13;;;1.73;;
5555;SDS011;2801;50.972;7.856;2023-02-26T14:51:20;2.37;;;1.00;;
5555;SDS011;2801;50.972;7.856;2023-02-26T14:54:30;3.43;;;1.43;;
5555;SDS011;2801;50.972;7.856;2023-02-26T15:00:39;1.10;;;0.83;;
5555;SDS011;2801;50.972;7.856;2023-02-26T15:06:50;2.00;;;0.80;;
5555;SDS011;2801;50.972;7.856;2023-02-26T15:13:35;1.90;;;1.10;;
5555;SDS011;2801;50.972;7.856;2023-02-26T15:16:58;3.30;;;1.30;;
5555;SDS011;2801;50.972;7.856;2023-02-26T15:20:09;2.23;;;0.70;;
5555;SDS011;2801;50.972;7.856;2023-02-26T15:23:27;1.63;;;1.00;;
5555;SDS011;2801;50.972;7.856;2023-02-26T15:26:11;2.60;;;0.90;;
5555;SDS011;2801;50.972;7.856;2023-02-26T15:28:56;3.40;;;0.83;;
5555;SDS011;2801;50.972;7.856;2023-02-26T15:31:35;1.50;;;1.10;;
5555;SDS011;2801;50.972;7.856;2023-02-26T15:34:09;2.60;;;1.00;;
5555;SDS011;2801;50.972;7.856;2023-02-26T15:36:39;2.40;;;0.70;;
5555;SDS011;2801;50.972;7.856;2023-02-26T15:39:11;1.70;;;0.80;;
5555;SDS011;2801;50.972;7.856;2023-02-26T15:41:45;2.50;;;1.20;;
5555;SDS011;2801;50.972;7.856;2023-02-26T15:44:18;1.97;;;1.20;;
5555;SDS011;2801;50.972;7.856;2023-02-26T15:46:54;1.33;;;1.00;;
5555;SDS011;2801;50.972;7.856;2023-02-26T15:49:33;0.93;;;0.70;;
5555;SDS011;2801;50.972;7.856;2023-02-26T15:52:05;1.37;;;1.03;;
5555;SDS011;2801;50.972;7.856;2023-02-26T15:54:38;1.90;;;1.10;;
5555;SDS011;2801;50.972;7.856;2023-02-26T15:57:12;1.77;;;0.90;;
5555;SDS011;2801;50.972;7.856;2023-02-26T15:59:45;1.90;;;0.80;;
5555;SDS011;2801;50.972;7.856;2023-02-26T16:02:17;0.97;;;0.60;;
5555;SDS011;2801;50.972;7.856;2023-02-26T16:04:52;0.83;;;0.70;;
5555;SDS011;2801;50.972;7.856;2023-02-26T16:07:19;1.50;;;1.00;;
5555;SDS011;2801;50.972;7.856;2023-02-26T16:09:48;4.63;;;1.90;;
5555;SDS011;2801;50.972;7.856;2023-02-26T16:12:20;2.87;;;1.23;;
5555;SDS011;2801;50.972;7.856;2023-02-26T16:15:01;6.10;;;2.03;;
5555;SDS011;2801;50.972;7.856;2023-02-26T16:17:38;3.93;;;1.97;;
5555;SDS011;2801;50.972;7.856;2023-02-26T16:20:14;3.70;;;1.70;;
5555;SDS011;2801;50.972;7.856;2023-02-26T16:22:46;5.23;;;2.80;;
5555;SDS011;2801;50.972;7.856;2023-02-26T16:25:22;2.07;;;1.00;;
5555;SDS011;2801;50.972;7.856;2023-02-26T16:28:11;3.43;;;1.20;;
5555;SDS011;2801;50.972;7.856;2023-02-26T16:30:46;1.73;;;0.60;;
5555;SDS011;2801;50.972;7.856;2023-02-26T16:33:20;1.33;;;0.90;;
5555;SDS011;2801;50.972;7.856;2023-02-26T16:36:02;1.63;;;1.03;;
5555;SDS011;2801;50.972;7.856;2023-02-26T16:38:44;1.90;;;0.97;;
5555;SDS011;2801;50.972;7.856;2023-02-26T16:41:24;0.90;;;0.80;;
5555;SDS011;2801;50.972;7.856;2023-02-26T16:43:56;3.03;;;1.50;;
5555;SDS011;2801;50.972;7.856;2023-02-26T16:49:09;4.27;;;1.70;;
5555;SDS011;2801;50.972;7.856;2023-02-26T16:51:47;3.00;;;1.00;;
5555;SDS011;2801;50.972;7.856;2023-02-26T16:54:26;2.03;;;1.23;;
5555;SDS011;2801;50.972;7.856;2023-02-26T16:57:05;2.33;;;1.67;;
5555;SDS011;2801;50.972;7.856;2023-02-26T16:59:51;4.47;;;2.63;;
5555;SDS011;2801;50.972;7.856;2023-02-26T17:02:23;4.00;;;1.50;;
5555;SDS011;2801;50.972;7.856;2023-02-26T17:04:58;2.97;;;1.37;;
5555;SDS011;2801;50.972;7.856;2023-02-26T17:07:30;1.40;;;1.10;;
5555;SDS011;2801;50.972;7.856;2023-02-26T17:10:09;1.87;;;1.23;;
5555;SDS011;2801;50.972;7.856;2023-02-26T17:13:00;2.40;;;1.00;;
5555;SDS011;2801;50.972;7.856;2023-02-26T17:15:38;8.27;;;4.03;;
5555;SDS011;2801;50.972;7.856;2023-02-26T17:18:06;3.23;;;1.93;;
5555;SDS011;2801;50.972;7.856;2023-02-26T17:20:34;1.80;;;1.10;;
5555;SDS011;2801;50.972;7.856;2023-02-26T17:23:03;2.50;;;1.23;;
5555;SDS011;2801;50.972;7.856;2023-02-26T17:25:35;2.90;;;1.50;;
5555;SDS011;2801;50.972;7.856;2023-02-26T17:28:07;2.70;;;1.30;;
5555;SDS011;2801;50.972;7.856;2023-02-26T17:31:02;2.27;;;1.47;;
5555;SDS011;2801;50.972;7.856;2023-02-26T17:33:29;1.93;;;1.50;;
5555;SDS011;2801;50.972;7.856;2023-02-26T17:36:00;6.07;;;3.63;;
5555;SDS011;2801;50.972;7.856;2023-02-26T17:38:29;2.37;;;1.30;;
5555;SDS011;2801;50.972;7.856;2023-02-26T17:40:58;2.90;;;1.33;;
5555;SDS011;2801;50.972;7.856;2023-02-26T17:43:25;1.73;;;1.10;;
5555;SDS011;2801;50.972;7.856;2023-02-26T17:45:53;2.67;;;1.60;;
5555;SDS011;2801;50.972;7.856;2023-02-26T17:48:21;6.63;;;2.57;;
5555;SDS011;2801;50.972;7.856;2023-02-26T17:50:49;4.07;;;1.53;;
5555;SDS011;2801;50.972;7.856;2023-02-26T17:53:23;3.67;;;1.90;;
5555;SDS011;2801;50.972;7.856;2023-02-26T17:55:58;5.63;;;2.30;;
5555;SDS011;2801;50.972;7.856;2023-02-26T17:58:26;6.40;;;2.73;;
5555;SDS011;2801;50.972;7.856;2023-02-26T18:00:55;4.20;;;2.07;;
5555;SDS011;2801;50.972;7.856;2023-02-26T18:03:22;3.47;;;2.17;;
5555;SDS011;2801;50.972;7.856;2023-02-26T18:05:50;1.70;;;1.50;;
5555;SDS011;2801;50.972;7.856;2023-02-26T18:08:21;3.80;;;2.07;;
5555;SDS011;2801;50.972;7.856;2023-02-26T18:10:54;4.67;;;2.57;;
5555;SDS011;2801;50.972;7.856;2023-02-26T18:13:22;5.77;;;2.80;;
5555;SDS011;2801;50.972;7.856;2023-02-26T18:15:51;3.23;;;1.93;;
5555;SDS011;2801;50.972;7.856;2023-02-26T18:18:21;3.23;;;1.60;;
5555;SDS011;2801;50.972;7.856;2023-02-26T18:20:51;2.60;;;1.80;;
5555;SDS011;2801;50.972;7.856;2023-02-26T18:23:18;2.50;;;1.47;;
5555;SDS011;2801;50.972;7.856;2023-02-26T18:25:46;3.37;;;2.40;;
5555;SDS011;2801;50.972;7.856;2023-02-26T18:28:17;2.07;;;1.23;;
5555;SDS011;2801;50.972;7.856;2023-02-26T18:30:52;7.07;;;2.27;;